createdAt,value
2018-12-19T00:00:22.715Z,17.40
2018-12-19T00:02:24.650Z,17.37
2018-12-19T00:04:26.591Z,16.97
2018-12-19T00:06:28.533Z,17.23
2018-12-19T00:08:30.498Z,16.70
2018-12-19T00:10:32.446Z,21.00
2018-12-19T00:12:34.505Z,13.90
2018-12-19T00:14:36.447Z,14.13
2018-12-19T00:16:38.378Z,13.67
2018-12-19T00:18:40.459Z,16.23
2018-12-19T00:20:42.435Z,12.17
2018-12-19T00:22:45.146Z,17.63
2018-12-19T00:24:47.090Z,19.93
2018-12-19T00:26:49.034Z,16.23
2018-12-19T00:28:50.990Z,13.63
2018-12-19T00:30:52.935Z,17.27
2018-12-19T00:32:54.871Z,16.13
2018-12-19T00:34:56.818Z,13.97
2018-12-19T00:36:58.755Z,22.77
2018-12-19T00:39:00.708Z,16.60
2018-12-19T00:41:02.659Z,20.13
2018-12-19T00:43:04.598Z,17.33
2018-12-19T00:45:06.552Z,19.57
2018-12-19T00:47:08.493Z,19.00
2018-12-19T00:49:10.426Z,13.80
2018-12-19T00:51:12.366Z,22.80
2018-12-19T00:53:14.312Z,15.17
2018-12-19T00:55:16.258Z,17.80
2018-12-19T00:57:18.202Z,10.90
2018-12-19T00:59:20.159Z,17.00
2018-12-19T01:01:22.210Z,18.80
2018-12-19T01:03:24.198Z,16.40
2018-12-19T01:05:26.155Z,18.80
2018-12-19T01:07:28.094Z,16.97
2018-12-19T01:09:30.049Z,13.43
2018-12-19T01:11:31.994Z,15.47
2018-12-19T01:13:33.930Z,13.20
2018-12-19T01:15:35.882Z,14.33
2018-12-19T01:17:37.819Z,17.90
2018-12-19T01:19:39.874Z,17.60
2018-12-19T01:21:41.814Z,14.10
2018-12-19T01:23:43.750Z,10.90
2018-12-19T01:25:45.694Z,13.67
2018-12-19T01:27:47.628Z,23.23
2018-12-19T01:29:49.566Z,16.73
2018-12-19T01:31:51.510Z,17.33
2018-12-19T01:33:53.447Z,22.80
2018-12-19T01:35:55.382Z,15.60
2018-12-19T01:37:57.319Z,12.40
2018-12-19T01:39:59.262Z,13.83
2018-12-19T01:42:01.211Z,14.87
2018-12-19T01:44:03.165Z,18.20
2018-12-19T01:46:05.111Z,12.47
2018-12-19T01:48:07.047Z,13.20
2018-12-19T01:50:08.985Z,13.50
2018-12-19T01:52:10.928Z,10.17
2018-12-19T01:54:12.870Z,13.07
2018-12-19T01:56:14.814Z,15.97
2018-12-19T01:58:16.755Z,11.87
2018-12-19T02:00:20.822Z,12.93
2018-12-19T02:02:22.767Z,13.80
2018-12-19T02:04:24.826Z,19.67
2018-12-19T02:06:26.767Z,13.83
2018-12-19T02:08:28.703Z,13.17
2018-12-19T02:10:30.650Z,12.77
2018-12-19T02:12:32.590Z,16.93
2018-12-19T02:14:34.519Z,12.87
2018-12-19T02:16:36.457Z,19.97
2018-12-19T02:18:38.395Z,14.93
2018-12-19T02:20:40.343Z,14.57
2018-12-19T02:22:42.286Z,20.57
2018-12-19T02:24:44.214Z,18.60
2018-12-19T02:26:46.139Z,17.50
2018-12-19T02:28:48.126Z,14.13
2018-12-19T02:30:50.068Z,23.33
2018-12-19T02:32:51.994Z,16.47
2018-12-19T02:34:53.930Z,13.10
2018-12-19T02:36:55.878Z,19.30
2018-12-19T02:38:57.816Z,17.00
2018-12-19T02:40:59.766Z,16.63
2018-12-19T02:43:01.707Z,17.07
2018-12-19T02:45:03.899Z,13.37
2018-12-19T02:47:05.838Z,12.83
2018-12-19T02:49:07.771Z,17.30
2018-12-19T02:51:09.714Z,17.13
2018-12-19T02:53:11.654Z,15.10
2018-12-19T02:55:13.590Z,18.50
2018-12-19T02:57:15.526Z,22.97
2018-12-19T02:59:17.583Z,16.93
2018-12-19T03:01:19.631Z,17.40
2018-12-19T03:03:21.607Z,19.50
2018-12-19T03:05:23.532Z,19.30
2018-12-19T03:07:25.484Z,21.40
2018-12-19T03:09:27.521Z,16.47
2018-12-19T03:11:29.477Z,14.97
2018-12-19T03:13:31.830Z,10.87
2018-12-19T03:15:33.771Z,15.33
2018-12-19T03:17:35.715Z,11.17
2018-12-19T03:19:37.656Z,14.50
2018-12-19T03:21:39.711Z,13.43
2018-12-19T03:23:41.655Z,14.33
2018-12-19T03:25:43.588Z,16.20
2018-12-19T03:27:45.530Z,16.03
2018-12-19T03:29:47.479Z,13.87
2018-12-19T03:31:49.427Z,18.27
2018-12-19T03:33:51.363Z,15.67
2018-12-19T03:35:53.298Z,17.60
2018-12-19T03:37:55.244Z,16.40
2018-12-19T03:39:57.187Z,18.43
2018-12-19T03:41:59.238Z,16.00
2018-12-19T03:44:01.177Z,22.53
2018-12-19T03:46:03.130Z,18.10
2018-12-19T03:48:05.068Z,14.43
2018-12-19T03:50:07.427Z,18.70
2018-12-19T03:52:09.350Z,20.23
2018-12-19T03:54:11.404Z,20.30
2018-12-19T03:56:13.357Z,15.00
2018-12-19T03:58:15.414Z,17.73
2018-12-19T04:00:17.358Z,15.90
2018-12-19T04:02:19.288Z,19.30
2018-12-19T04:04:21.331Z,21.60
2018-12-19T04:06:23.276Z,17.30
2018-12-19T04:08:25.219Z,18.00
2018-12-19T04:10:27.148Z,18.20
2018-12-19T04:12:29.094Z,15.33
2018-12-19T04:14:31.032Z,15.30
2018-12-19T04:16:32.969Z,19.27
2018-12-19T04:18:35.166Z,14.60
2018-12-19T04:20:37.104Z,17.30
2018-12-19T04:22:39.047Z,15.70
2018-12-19T04:24:40.982Z,21.33
2018-12-19T04:26:42.926Z,18.60
2018-12-19T04:28:44.930Z,19.37
2018-12-19T04:30:46.875Z,15.00
2018-12-19T04:32:49.231Z,15.70
2018-12-19T04:34:51.171Z,18.30
2018-12-19T04:36:54.465Z,16.90
2018-12-19T04:38:56.871Z,15.97
2018-12-19T04:40:58.979Z,16.47
2018-12-19T04:43:00.934Z,14.70
2018-12-19T04:45:02.993Z,19.97
2018-12-19T04:47:05.022Z,16.13
2018-12-19T04:49:06.967Z,16.40
2018-12-19T04:51:08.902Z,15.23
2018-12-19T04:53:10.875Z,21.77
2018-12-19T04:55:12.903Z,19.70
2018-12-19T04:57:14.840Z,15.00
2018-12-19T04:59:16.931Z,20.30
2018-12-19T05:01:18.883Z,11.40
2018-12-19T05:03:20.820Z,15.27
2018-12-19T05:05:22.860Z,14.40
2018-12-19T05:07:25.217Z,10.87
2018-12-19T05:09:27.164Z,12.63
2018-12-19T05:11:29.527Z,15.50
2018-12-19T05:13:31.472Z,11.10
2018-12-19T05:15:33.412Z,12.13
2018-12-19T05:17:35.352Z,13.27
2018-12-19T05:19:37.291Z,16.00
2018-12-19T05:21:39.226Z,14.03
2018-12-19T05:23:41.231Z,9.67
2018-12-19T05:25:43.227Z,8.23
2018-12-19T05:27:45.166Z,9.50
2018-12-19T05:29:47.102Z,9.47
2018-12-19T05:31:49.092Z,15.30
2018-12-19T05:33:51.055Z,11.10
2018-12-19T05:35:52.994Z,17.43
2018-12-19T05:37:54.911Z,13.37
2018-12-19T05:39:56.855Z,11.23
2018-12-19T05:41:58.798Z,12.50
2018-12-19T05:44:00.859Z,15.83
2018-12-19T05:46:02.898Z,17.20
2018-12-19T05:48:04.852Z,12.67
2018-12-19T05:50:07.603Z,18.40
2018-12-19T05:52:09.551Z,12.10
2018-12-19T05:54:11.490Z,19.17
2018-12-19T05:56:13.427Z,14.60
2018-12-19T05:58:15.346Z,14.10
2018-12-19T06:00:17.424Z,14.20
2018-12-19T06:02:19.446Z,15.40
2018-12-19T06:04:21.391Z,18.07
2018-12-19T06:06:23.326Z,19.27
2018-12-19T06:08:25.268Z,15.20
2018-12-19T06:10:27.211Z,18.10
2018-12-19T06:12:29.283Z,15.47
2018-12-19T06:14:31.226Z,16.03
2018-12-19T06:16:33.162Z,15.93
2018-12-19T06:18:35.161Z,16.50
2018-12-19T06:20:37.202Z,17.73
2018-12-19T06:22:39.191Z,17.13
2018-12-19T06:24:41.130Z,17.53
2018-12-19T06:26:43.057Z,17.50
2018-12-19T06:28:45.064Z,17.83
2018-12-19T06:30:47.061Z,15.60
2018-12-19T06:32:49.014Z,18.93
2018-12-19T06:34:51.202Z,14.97
2018-12-19T06:36:53.148Z,15.57
2018-12-19T06:38:55.199Z,18.70
2018-12-19T06:40:57.150Z,12.57
2018-12-19T06:42:59.095Z,16.70
2018-12-19T06:45:01.079Z,18.60
2018-12-19T06:47:03.034Z,16.80
2018-12-19T06:49:04.979Z,12.80
2018-12-19T06:51:06.930Z,14.77
2018-12-19T06:53:09.390Z,13.70
2018-12-19T06:55:11.346Z,14.53
2018-12-19T06:57:13.291Z,16.07
2018-12-19T06:59:15.218Z,16.77
2018-12-19T07:01:17.160Z,16.57
2018-12-19T07:03:19.102Z,13.60
2018-12-19T07:05:21.056Z,15.77
2018-12-19T07:07:23.099Z,16.43
2018-12-19T07:09:25.151Z,18.80
2018-12-19T07:11:27.516Z,17.20
2018-12-19T07:13:29.458Z,14.50
2018-12-19T07:15:31.395Z,14.33
2018-12-19T07:17:33.338Z,19.70
2018-12-19T07:19:35.413Z,14.83
2018-12-19T07:21:37.363Z,16.80
2018-12-19T07:23:39.922Z,12.90
2018-12-19T07:25:41.966Z,17.70
2018-12-19T07:27:43.906Z,17.93
2018-12-19T07:29:45.951Z,41.70
2018-12-19T07:31:47.894Z,39.67
2018-12-19T07:33:49.830Z,20.10
2018-12-19T07:35:51.838Z,20.53
2018-12-19T07:37:53.832Z,18.83
2018-12-19T07:39:56.401Z,26.10
2018-12-19T07:41:58.631Z,24.73
2018-12-19T07:44:00.563Z,24.93
2018-12-19T07:46:02.500Z,21.00
2018-12-19T07:48:04.446Z,19.80
2018-12-19T07:50:06.386Z,19.70
2018-12-19T07:52:08.451Z,24.87
2018-12-19T07:54:10.390Z,18.80
2018-12-19T07:56:12.740Z,19.90
2018-12-19T07:58:14.671Z,23.80
2018-12-19T08:00:16.611Z,18.83
2018-12-19T08:02:18.558Z,20.83
2018-12-19T08:04:20.918Z,25.97
2018-12-19T08:06:22.857Z,19.77
2018-12-19T08:08:24.802Z,27.47
2018-12-19T08:10:26.731Z,23.57
2018-12-19T08:12:28.787Z,24.27
2018-12-19T08:14:30.726Z,24.37
2018-12-19T08:16:32.670Z,26.77
2018-12-19T08:18:34.618Z,24.90
2018-12-19T08:20:36.555Z,21.73
2018-12-19T08:22:38.497Z,25.30
2018-12-19T08:24:40.430Z,28.10
2018-12-19T08:26:42.386Z,26.80
2018-12-19T08:28:44.675Z,20.23
2018-12-19T08:30:46.630Z,25.70
2018-12-19T08:32:48.571Z,26.53
2018-12-19T08:34:50.510Z,22.63
2018-12-19T08:36:52.570Z,22.70
2018-12-19T08:38:54.514Z,18.37
2018-12-19T08:40:59.000Z,20.10
2018-12-19T08:43:00.514Z,22.47
2018-12-19T08:45:02.463Z,25.23
2018-12-19T08:47:04.405Z,21.07
2018-12-19T08:49:06.346Z,21.37
2018-12-19T08:51:08.282Z,22.27
2018-12-19T08:53:10.222Z,21.10
2018-12-19T08:55:12.271Z,20.00
2018-12-19T08:57:14.206Z,22.33
2018-12-19T08:59:16.159Z,24.73
2018-12-19T09:01:18.095Z,27.10
2018-12-19T09:03:20.031Z,23.33
2018-12-19T09:05:22.007Z,27.93
2018-12-19T09:07:23.943Z,28.57
2018-12-19T09:09:25.882Z,23.77
2018-12-19T09:11:27.818Z,23.47
2018-12-19T09:13:29.766Z,20.87
2018-12-19T09:15:37.446Z,23.80
2018-12-19T09:17:39.383Z,22.60
2018-12-19T09:19:41.638Z,16.77
2018-12-19T09:21:43.574Z,18.00
2018-12-19T09:23:45.526Z,20.00
2018-12-19T09:25:47.455Z,24.07
2018-12-19T09:27:49.387Z,21.97
2018-12-19T09:29:51.330Z,24.20
2018-12-19T09:31:53.259Z,25.57
2018-12-19T09:33:55.203Z,25.10
2018-12-19T09:35:57.143Z,28.30
2018-12-19T09:37:59.080Z,22.67
2018-12-19T09:40:01.026Z,26.00
2018-12-19T09:42:02.959Z,26.00
2018-12-19T09:44:04.910Z,23.93
2018-12-19T09:46:06.843Z,23.70
2018-12-19T09:48:08.790Z,25.83
2018-12-19T09:50:10.782Z,25.70
2018-12-19T09:52:12.778Z,20.83
2018-12-19T09:54:14.730Z,20.63
2018-12-19T09:56:16.699Z,29.20
2018-12-19T09:58:18.746Z,24.87
2018-12-19T10:00:26.536Z,26.10
2018-12-19T10:02:28.482Z,24.50
2018-12-19T10:04:30.422Z,25.73
2018-12-19T10:06:32.374Z,23.40
2018-12-19T10:08:34.311Z,31.07
2018-12-19T10:10:36.246Z,25.80
2018-12-19T10:12:38.183Z,31.87
2018-12-19T10:14:40.131Z,27.10
2018-12-19T10:16:42.067Z,27.23
2018-12-19T10:18:44.122Z,27.00
2018-12-19T10:20:46.071Z,23.00
2018-12-19T10:22:50.019Z,26.23
2018-12-19T10:24:57.824Z,23.90
2018-12-19T10:26:59.766Z,24.77
2018-12-19T10:29:01.710Z,21.30
2018-12-19T10:31:03.688Z,18.60
2018-12-19T10:33:05.636Z,23.10
2018-12-19T10:35:09.987Z,25.60
2018-12-19T10:37:11.928Z,21.93
2018-12-19T10:39:16.258Z,27.00
2018-12-19T10:41:18.207Z,18.80
2018-12-19T10:43:20.159Z,25.13
2018-12-19T10:45:22.099Z,21.30
2018-12-19T10:47:24.042Z,28.60
2018-12-19T10:49:25.979Z,26.27
2018-12-19T10:51:27.910Z,29.63
2018-12-19T10:53:29.954Z,30.37
2018-12-19T10:55:32.072Z,27.30
2018-12-19T10:57:34.034Z,28.83
2018-12-19T10:59:36.074Z,26.40
2018-12-19T11:01:38.117Z,22.83
2018-12-19T11:03:40.054Z,26.33
2018-12-19T11:05:41.986Z,23.63
2018-12-19T11:07:43.922Z,24.20
2018-12-19T11:09:45.846Z,24.90
2018-12-19T11:11:47.786Z,28.00
2018-12-19T11:13:49.727Z,29.47
2018-12-19T11:15:51.678Z,24.33
2018-12-19T11:17:53.616Z,28.43
2018-12-19T11:19:55.671Z,24.00
2018-12-19T11:21:57.614Z,27.57
2018-12-19T11:23:59.667Z,27.43
2018-12-19T11:26:01.606Z,27.60
2018-12-19T11:28:03.591Z,24.30
2018-12-19T11:30:07.172Z,26.73
2018-12-19T11:32:09.111Z,24.70
2018-12-19T11:34:11.047Z,23.10
2018-12-19T11:36:13.044Z,24.37
2018-12-19T11:38:14.987Z,25.97
2018-12-19T11:40:16.926Z,27.73
2018-12-19T11:42:18.879Z,23.70
2018-12-19T11:44:20.822Z,25.50
2018-12-19T11:46:22.773Z,23.17
2018-12-19T11:48:24.715Z,27.13
2018-12-19T11:50:26.651Z,25.27
2018-12-19T11:52:28.608Z,24.83
2018-12-19T11:54:30.531Z,29.37
2018-12-19T11:56:32.474Z,26.70
2018-12-19T11:58:34.401Z,31.53
2018-12-19T12:00:36.458Z,24.53
2018-12-19T12:02:38.411Z,26.23
2018-12-19T12:04:40.353Z,30.90
2018-12-19T12:06:42.298Z,28.90
2018-12-19T12:08:44.235Z,27.93
2018-12-19T12:10:46.174Z,34.03
2018-12-19T12:12:48.110Z,28.40
2018-12-19T12:14:50.042Z,32.20
2018-12-19T12:16:51.974Z,23.63
2018-12-19T12:18:54.179Z,25.80
2018-12-19T12:20:56.119Z,23.83
2018-12-19T12:22:58.176Z,28.40
2018-12-19T12:25:00.123Z,21.93
2018-12-19T12:27:02.079Z,29.27
2018-12-19T12:29:04.015Z,26.80
2018-12-19T12:31:06.050Z,27.93
2018-12-19T12:33:08.282Z,26.53
2018-12-19T12:35:10.279Z,24.80
2018-12-19T12:37:12.507Z,30.30
2018-12-19T12:39:14.459Z,23.70
2018-12-19T12:41:16.426Z,28.13
2018-12-19T12:43:18.394Z,25.57
2018-12-19T12:45:20.643Z,27.30
2018-12-19T12:47:22.723Z,34.57
2018-12-19T12:49:24.782Z,26.90
2018-12-19T12:51:26.771Z,28.77
2018-12-19T12:53:28.743Z,23.67
2018-12-19T12:55:30.712Z,24.30
2018-12-19T12:57:32.679Z,27.83
2018-12-19T12:59:34.614Z,24.27
2018-12-19T13:01:36.551Z,28.27
2018-12-19T13:03:38.498Z,28.77
2018-12-19T13:05:40.442Z,25.13
2018-12-19T13:07:42.382Z,28.73
2018-12-19T13:09:44.322Z,26.13
2018-12-19T13:11:46.250Z,24.30
2018-12-19T13:13:48.196Z,26.63
2018-12-19T13:15:50.138Z,26.37
2018-12-19T13:17:52.405Z,26.90
2018-12-19T13:19:54.351Z,28.17
2018-12-19T13:21:56.294Z,37.80
2018-12-19T13:23:58.235Z,25.60
2018-12-19T13:26:00.179Z,27.50
2018-12-19T13:28:02.444Z,24.27
2018-12-19T13:30:06.530Z,23.53
2018-12-19T13:32:09.494Z,27.13
2018-12-19T13:34:11.542Z,28.60
2018-12-19T13:36:13.597Z,20.07
2018-12-19T13:38:15.539Z,21.33
2018-12-19T13:40:17.467Z,23.50
2018-12-19T13:42:19.407Z,21.40
2018-12-19T13:44:21.350Z,19.73
2018-12-19T13:46:23.283Z,17.13
2018-12-19T13:48:25.227Z,18.33
2018-12-19T13:50:27.163Z,19.10
2018-12-19T13:52:29.119Z,17.73
2018-12-19T13:54:31.063Z,21.07
2018-12-19T13:56:33.214Z,19.90
2018-12-19T13:58:35.874Z,20.97
2018-12-19T14:00:37.932Z,18.90
2018-12-19T14:02:39.878Z,19.87
2018-12-19T14:04:42.018Z,20.30
2018-12-19T14:06:43.950Z,18.17
2018-12-19T14:08:45.882Z,19.90
2018-12-19T14:10:47.828Z,19.90
2018-12-19T14:12:49.869Z,17.70
2018-12-19T14:14:51.806Z,18.60
2018-12-19T14:16:53.759Z,18.93
2018-12-19T14:18:55.700Z,18.53
2018-12-19T14:20:57.617Z,18.57
2018-12-19T14:22:59.616Z,21.17
2018-12-19T14:25:01.604Z,19.20
2018-12-19T14:27:03.543Z,17.20
2018-12-19T14:29:05.489Z,17.40
2018-12-19T14:31:07.422Z,16.73
2018-12-19T14:33:10.183Z,17.93
2018-12-19T14:35:12.254Z,18.40
2018-12-19T14:37:14.186Z,15.93
2018-12-19T14:39:16.294Z,16.67
2018-12-19T14:41:18.239Z,16.37
2018-12-19T14:43:20.180Z,17.03
2018-12-19T14:45:22.422Z,18.93
2018-12-19T14:47:24.345Z,20.03
2018-12-19T14:49:26.394Z,19.40
2018-12-19T14:51:28.442Z,16.87
2018-12-19T14:53:30.382Z,18.80
2018-12-19T14:55:32.318Z,19.07
2018-12-19T14:57:34.255Z,18.90
2018-12-19T14:59:36.194Z,17.90
2018-12-19T15:01:38.135Z,23.97
2018-12-19T15:03:40.079Z,19.30
2018-12-19T15:05:42.015Z,21.87
2018-12-19T15:07:43.955Z,19.97
2018-12-19T15:09:45.899Z,19.60
2018-12-19T15:11:47.843Z,20.00
2018-12-19T15:13:49.791Z,17.67
2018-12-19T15:15:57.574Z,21.83
2018-12-19T15:17:59.515Z,22.47
2018-12-19T15:20:01.470Z,20.50
2018-12-19T15:22:03.510Z,20.43
2018-12-19T15:24:05.451Z,20.90
2018-12-19T15:26:07.495Z,19.30
2018-12-19T15:28:09.434Z,21.43
2018-12-19T15:30:11.378Z,19.07
2018-12-19T15:32:13.323Z,18.93
2018-12-19T15:34:15.369Z,19.00
2018-12-19T15:36:17.827Z,16.23
2018-12-19T15:38:19.763Z,21.50
2018-12-19T15:40:21.710Z,20.87
2018-12-19T15:42:23.662Z,20.20
2018-12-19T15:44:25.606Z,29.23
2018-12-19T15:46:27.647Z,21.07
2018-12-19T15:48:29.587Z,17.20
2018-12-19T15:50:31.531Z,20.87
2018-12-19T15:52:33.473Z,22.63
2018-12-19T15:54:35.519Z,33.50
2018-12-19T15:56:37.466Z,19.80
2018-12-19T15:58:39.403Z,24.30
2018-12-19T16:00:41.343Z,20.73
2018-12-19T16:02:43.277Z,19.87
2018-12-19T16:04:45.211Z,20.87
2018-12-19T16:06:47.158Z,21.33
2018-12-19T16:08:49.099Z,22.93
2018-12-19T16:10:51.042Z,26.83
2018-12-19T16:12:53.000Z,19.80
2018-12-19T16:14:54.930Z,23.57
2018-12-19T16:16:56.879Z,22.90
2018-12-19T16:18:58.806Z,25.10
2018-12-19T16:21:00.758Z,20.70
2018-12-19T16:23:02.703Z,21.50
2018-12-19T16:25:04.708Z,22.43
2018-12-19T16:27:06.690Z,19.77
2018-12-19T16:29:08.693Z,22.10
2018-12-19T16:31:10.682Z,20.97
2018-12-19T16:33:12.618Z,22.83
2018-12-19T16:35:14.558Z,23.30
2018-12-19T16:37:16.498Z,22.87
2018-12-19T16:39:18.443Z,24.03
2018-12-19T16:41:20.391Z,22.83
2018-12-19T16:43:22.331Z,21.10
2018-12-19T16:45:24.274Z,21.73
2018-12-19T16:47:26.223Z,21.40
2018-12-19T16:49:28.154Z,21.70
2018-12-19T16:51:30.103Z,27.33
2018-12-19T16:53:32.255Z,24.33
2018-12-19T16:55:34.199Z,24.03
2018-12-19T16:57:36.150Z,29.63
2018-12-19T16:59:38.094Z,25.90
2018-12-19T17:01:40.042Z,22.60
2018-12-19T17:03:41.991Z,25.57
2018-12-19T17:05:43.921Z,27.43
2018-12-19T17:07:46.023Z,22.53
2018-12-19T17:09:47.963Z,27.40
2018-12-19T17:11:49.906Z,26.20
2018-12-19T17:13:51.831Z,32.13
2018-12-19T17:15:53.770Z,21.40
2018-12-19T17:17:55.711Z,24.60
2018-12-19T17:19:57.653Z,26.70
2018-12-19T17:21:59.599Z,27.67
2018-12-19T17:24:01.531Z,20.00
2018-12-19T17:26:03.472Z,21.10
2018-12-19T17:28:05.508Z,21.33
2018-12-19T17:30:07.451Z,23.70
2018-12-19T17:32:09.507Z,24.53
2018-12-19T17:34:11.439Z,25.27
2018-12-19T17:36:13.374Z,23.57
2018-12-19T17:38:15.431Z,25.53
2018-12-19T17:40:17.367Z,24.73
2018-12-19T17:42:19.319Z,23.50
2018-12-19T17:44:21.243Z,25.43
2018-12-19T17:46:23.182Z,27.40
2018-12-19T17:48:25.114Z,26.20
2018-12-19T17:50:27.050Z,24.40
2018-12-19T17:52:28.991Z,26.60
2018-12-19T17:54:30.927Z,26.33
2018-12-19T17:56:32.868Z,28.57
2018-12-19T17:58:34.811Z,21.40
2018-12-19T18:00:36.862Z,27.23
2018-12-19T18:02:38.803Z,29.10
2018-12-19T18:04:40.734Z,25.37
2018-12-19T18:06:42.671Z,28.53
2018-12-19T18:08:44.614Z,26.30
2018-12-19T18:10:46.546Z,26.57
2018-12-19T18:12:48.488Z,23.40
2018-12-19T18:14:50.427Z,30.10
2018-12-19T18:16:52.374Z,34.17
2018-12-19T18:18:54.338Z,24.23
2018-12-19T18:20:56.274Z,27.90
2018-12-19T18:22:58.222Z,26.10
2018-12-19T18:25:00.187Z,27.67
2018-12-19T18:27:02.128Z,28.63
2018-12-19T18:29:04.078Z,26.90
2018-12-19T18:31:06.018Z,26.20
2018-12-19T18:33:07.983Z,27.70
2018-12-19T18:35:09.923Z,28.93
2018-12-19T18:37:11.852Z,30.27
2018-12-19T18:39:13.790Z,29.20
2018-12-19T18:41:15.739Z,33.80
2018-12-19T18:43:17.687Z,30.57
2018-12-19T18:45:19.634Z,26.33
2018-12-19T18:47:21.578Z,31.43
2018-12-19T18:49:23.511Z,28.27
2018-12-19T18:51:25.447Z,28.90
2018-12-19T18:53:27.394Z,23.40
2018-12-19T18:55:29.331Z,28.00
2018-12-19T18:57:31.266Z,28.33
2018-12-19T18:59:33.211Z,24.70
2018-12-19T19:01:35.278Z,37.60
2018-12-19T19:03:37.344Z,33.00
2018-12-19T19:05:39.412Z,32.97
2018-12-19T19:07:41.411Z,32.33
2018-12-19T19:09:43.391Z,34.17
2018-12-19T19:11:45.331Z,31.67
2018-12-19T19:13:47.310Z,27.30
2018-12-19T19:15:49.243Z,28.57
2018-12-19T19:17:51.202Z,31.73
2018-12-19T19:19:53.174Z,31.00
2018-12-19T19:21:55.355Z,29.33
2018-12-19T19:23:57.303Z,32.33
2018-12-19T19:25:59.953Z,32.33
2018-12-19T19:28:01.898Z,34.67
2018-12-19T19:30:05.035Z,31.60
2018-12-19T19:32:07.010Z,32.00
2018-12-19T19:34:09.005Z,38.10
2018-12-19T19:36:11.052Z,33.03
2018-12-19T19:38:12.996Z,30.83
2018-12-19T19:40:15.054Z,27.77
2018-12-19T19:42:17.001Z,27.53
2018-12-19T19:44:18.938Z,29.27
2018-12-19T19:46:20.878Z,29.23
2018-12-19T19:48:22.826Z,34.33
2018-12-19T19:50:24.776Z,27.67
2018-12-19T19:52:26.694Z,31.80
2018-12-19T19:54:28.635Z,33.07
2018-12-19T19:56:30.611Z,29.33
2018-12-19T19:58:32.552Z,30.70
2018-12-19T20:00:35.718Z,32.60
2018-12-19T20:02:38.046Z,24.80
2018-12-19T20:04:39.986Z,27.20
2018-12-19T20:06:41.923Z,30.17
2018-12-19T20:08:43.858Z,33.20
2018-12-19T20:10:45.810Z,27.47
2018-12-19T20:12:47.747Z,30.33
2018-12-19T20:14:49.695Z,31.83
2018-12-19T20:16:57.482Z,34.37
2018-12-19T20:18:59.423Z,32.00
2018-12-19T20:21:01.432Z,35.33
2018-12-19T20:23:03.383Z,34.37
2018-12-19T20:25:05.347Z,27.60
2018-12-19T20:27:07.285Z,35.40
2018-12-19T20:29:09.319Z,34.63
2018-12-19T20:31:11.277Z,29.33
2018-12-19T20:33:13.302Z,28.07
2018-12-19T20:35:15.242Z,35.83
2018-12-19T20:37:17.181Z,31.27
2018-12-19T20:39:19.122Z,30.20
2018-12-19T20:41:21.067Z,31.93
2018-12-19T20:43:23.003Z,40.80
2018-12-19T20:45:24.950Z,29.63
2018-12-19T20:47:26.895Z,32.73
2018-12-19T20:49:28.839Z,34.53
2018-12-19T20:51:30.778Z,34.73
2018-12-19T20:53:32.708Z,37.40
2018-12-19T20:55:34.778Z,35.73
2018-12-19T20:57:36.836Z,33.20
2018-12-19T20:59:39.062Z,30.80
2018-12-19T21:01:41.110Z,30.40
2018-12-19T21:03:43.047Z,32.23
2018-12-19T21:05:44.987Z,32.07
2018-12-19T21:07:46.926Z,35.87
2018-12-19T21:09:48.867Z,32.77
2018-12-19T21:11:50.818Z,35.03
2018-12-19T21:13:52.761Z,39.23
2018-12-19T21:15:54.846Z,32.23
2018-12-19T21:18:02.634Z,29.43
2018-12-19T21:20:04.895Z,33.03
2018-12-19T21:22:09.254Z,33.40
2018-12-19T21:24:11.187Z,46.53
2018-12-19T21:26:13.123Z,32.13
2018-12-19T21:28:15.066Z,34.30
2018-12-19T21:30:17.007Z,36.40
2018-12-19T21:32:18.959Z,36.73
2018-12-19T21:34:20.890Z,32.77
2018-12-19T21:36:22.834Z,40.63
2018-12-19T21:38:24.775Z,30.73
2018-12-19T21:40:26.718Z,41.27
2018-12-19T21:42:28.663Z,36.87
2018-12-19T21:44:30.598Z,29.37
2018-12-19T21:46:32.563Z,41.60
2018-12-19T21:48:34.590Z,41.77
2018-12-19T21:50:36.602Z,37.03
2018-12-19T21:52:38.578Z,58.40
2018-12-19T21:54:40.537Z,40.17
2018-12-19T21:56:42.570Z,45.37
2018-12-19T21:58:44.526Z,41.53
2018-12-19T22:00:46.552Z,55.00
2018-12-19T22:02:48.635Z,33.93
2018-12-19T22:04:50.574Z,40.53
2018-12-19T22:06:52.522Z,40.77
2018-12-19T22:08:54.495Z,38.30
2018-12-19T22:10:56.515Z,41.43
2018-12-19T22:12:58.453Z,43.97
2018-12-19T22:15:00.407Z,37.40
2018-12-19T22:17:08.370Z,31.83
2018-12-19T22:19:10.362Z,33.77
2018-12-19T22:21:12.302Z,44.03
2018-12-19T22:23:14.255Z,36.03
2018-12-19T22:25:16.190Z,35.40
2018-12-19T22:27:18.241Z,37.70
2018-12-19T22:29:20.303Z,36.93
2018-12-19T22:31:22.334Z,39.93
2018-12-19T22:33:24.270Z,40.57
2018-12-19T22:35:26.282Z,64.47
2018-12-19T22:37:28.246Z,55.67
2018-12-19T22:39:30.178Z,44.60
2018-12-19T22:41:32.119Z,40.90
2018-12-19T22:43:34.139Z,40.07
2018-12-19T22:45:36.281Z,45.43
2018-12-19T22:47:38.450Z,44.43
2018-12-19T22:49:40.473Z,42.07
2018-12-19T22:51:42.446Z,39.07
2018-12-19T22:53:44.499Z,41.70
2018-12-19T22:55:46.434Z,41.77
2018-12-19T22:57:48.436Z,41.23
2018-12-19T22:59:50.539Z,43.93
2018-12-19T23:01:58.271Z,36.47
2018-12-19T23:04:06.555Z,48.57
2018-12-19T23:06:08.794Z,48.40
2018-12-19T23:08:10.822Z,43.97
2018-12-19T23:10:12.879Z,39.87
2018-12-19T23:12:14.863Z,39.60
2018-12-19T23:14:16.863Z,35.80
2018-12-19T23:16:18.890Z,42.73
2018-12-19T23:18:26.091Z,46.47
2018-12-19T23:20:28.203Z,42.70
2018-12-19T23:22:30.266Z,41.93
2018-12-19T23:24:32.395Z,37.30
2018-12-19T23:26:34.495Z,39.20
2018-12-19T23:28:36.514Z,36.07
2018-12-19T23:30:38.564Z,36.33
2018-12-19T23:32:40.645Z,36.47
2018-12-19T23:34:42.647Z,39.50
2018-12-19T23:36:44.686Z,44.27
2018-12-19T23:38:46.626Z,45.43
2018-12-19T23:40:48.690Z,41.67
2018-12-19T23:42:50.809Z,44.77
2018-12-19T23:44:53.002Z,40.07
2018-12-19T23:46:56.648Z,43.23
2018-12-19T23:48:58.706Z,42.57
2018-12-19T23:51:00.724Z,70.00
2018-12-19T23:53:02.658Z,48.33
2018-12-19T23:55:05.430Z,52.97
2018-12-19T23:57:07.471Z,52.43
2018-12-19T23:59:09.819Z,39.27
